createdAt,value
2022-11-01T00:02:00.556Z,12.77
2022-11-01T00:04:27.480Z,14.32
2022-11-01T00:06:54.294Z,17.45
2022-11-01T00:09:21.400Z,14.55
2022-11-01T00:11:48.332Z,16.92
2022-11-01T00:14:17.286Z,13.82
2022-11-01T00:16:44.163Z,14.70
2022-11-01T00:19:11.202Z,17.05
2022-11-01T00:21:38.353Z,17.25
2022-11-01T00:24:05.562Z,13.52
2022-11-01T00:26:32.367Z,15.05
2022-11-01T00:28:59.132Z,14.60
2022-11-01T00:31:26.493Z,12.95
2022-11-01T00:33:53.458Z,14.82
2022-11-01T00:36:20.220Z,13.63
2022-11-01T00:38:53.304Z,14.38
2022-11-01T00:41:21.062Z,15.27
2022-11-01T00:43:48.676Z,14.25
2022-11-01T00:46:15.887Z,16.17
2022-11-01T00:48:42.743Z,11.20
2022-11-01T00:51:09.540Z,12.38
2022-11-01T00:53:36.522Z,11.68
2022-11-01T00:56:05.254Z,11.48
2022-11-01T00:58:32.275Z,12.88
2022-11-01T01:00:59.577Z,10.57
2022-11-01T01:03:26.569Z,13.63
2022-11-01T01:05:54.212Z,14.52
2022-11-01T01:08:21.701Z,11.55
2022-11-01T01:10:48.677Z,11.68
2022-11-01T01:13:15.545Z,11.88
2022-11-01T01:15:42.596Z,10.77
2022-11-01T01:18:10.093Z,12.05
2022-11-01T01:20:37.154Z,12.30
2022-11-01T01:23:04.475Z,11.13
2022-11-01T01:25:31.662Z,13.77
2022-11-01T01:27:58.495Z,12.05
2022-11-01T01:30:25.398Z,11.57
2022-11-01T01:32:52.216Z,10.77
2022-11-01T01:35:19.046Z,13.10
2022-11-01T01:37:45.875Z,13.23
2022-11-01T01:40:12.634Z,11.10
2022-11-01T01:42:41.981Z,11.18
2022-11-01T01:45:19.384Z,9.90
2022-11-01T01:47:52.084Z,14.55
2022-11-01T01:50:59.944Z,9.85
2022-11-01T01:53:31.464Z,13.48
2022-11-01T01:56:02.941Z,14.13
2022-11-01T01:58:33.201Z,11.57
2022-11-01T02:01:00.722Z,12.18
2022-11-01T02:03:31.711Z,11.00
2022-11-01T02:06:21.834Z,11.13
2022-11-01T02:08:53.192Z,8.98
2022-11-01T02:11:20.888Z,10.38
2022-11-01T02:13:48.058Z,10.68
2022-11-01T02:16:35.487Z,10.40
2022-11-01T02:19:21.071Z,9.70
2022-11-01T02:22:06.333Z,10.98
2022-11-01T02:24:39.073Z,9.63
2022-11-01T02:27:20.602Z,12.88
2022-11-01T02:29:47.273Z,10.38
2022-11-01T02:32:22.454Z,9.25
2022-11-01T02:35:10.097Z,9.95
2022-11-01T02:38:03.302Z,9.90
2022-11-01T02:40:43.248Z,9.90
2022-11-01T02:43:18.757Z,13.60
2022-11-01T02:45:50.253Z,7.93
2022-11-01T02:48:21.868Z,12.85
2022-11-01T02:50:57.307Z,9.18
2022-11-01T02:53:24.198Z,8.43
2022-11-01T02:55:54.230Z,10.63
2022-11-01T02:58:28.765Z,11.88
2022-11-01T03:00:57.196Z,7.93
2022-11-01T03:03:31.450Z,13.10
2022-11-01T03:06:01.158Z,11.32
2022-11-01T03:08:35.328Z,8.02
2022-11-01T03:11:13.447Z,7.85
2022-11-01T03:14:08.320Z,7.97
2022-11-01T03:17:00.607Z,9.43
2022-11-01T03:19:49.250Z,8.57
2022-11-01T03:22:28.857Z,8.30
2022-11-01T03:25:30.284Z,8.82
2022-11-01T03:28:00.201Z,9.02
2022-11-01T03:30:29.514Z,12.18
2022-11-01T03:32:57.761Z,11.13
2022-11-01T03:35:37.149Z,9.05
2022-11-01T03:38:10.063Z,8.18
2022-11-01T03:40:41.309Z,10.93
2022-11-01T03:43:12.569Z,8.70
2022-11-01T03:45:41.088Z,9.73
2022-11-01T03:48:08.246Z,9.20
2022-11-01T03:50:35.204Z,11.50
2022-11-01T03:53:02.299Z,8.98
2022-11-01T03:55:29.107Z,11.30
2022-11-01T03:57:57.729Z,9.45
2022-11-01T04:00:28.948Z,8.25
2022-11-01T04:02:58.189Z,10.07
2022-11-01T04:05:27.615Z,11.63
2022-11-01T04:07:55.268Z,8.57
2022-11-01T04:10:23.956Z,9.13
2022-11-01T04:12:51.935Z,9.20
2022-11-01T04:15:38.923Z,10.60
2022-11-01T04:18:27.365Z,9.20
2022-11-01T04:20:54.351Z,11.65
2022-11-01T04:23:21.254Z,9.07
2022-11-01T04:25:48.137Z,7.40
2022-11-01T04:28:15.958Z,8.40
2022-11-01T04:30:43.921Z,11.93
2022-11-01T04:33:11.091Z,8.88
2022-11-01T04:35:40.472Z,11.30
2022-11-01T04:38:08.766Z,10.73
2022-11-01T04:40:35.580Z,12.02
2022-11-01T04:43:02.364Z,12.32
2022-11-01T04:45:29.158Z,10.93
2022-11-01T04:48:15.986Z,9.40
2022-11-01T04:50:43.321Z,16.70
2022-11-01T04:53:10.663Z,12.85
2022-11-01T04:55:37.895Z,10.60
2022-11-01T04:58:06.640Z,9.35
2022-11-01T05:00:34.445Z,10.25
2022-11-01T05:03:08.355Z,11.30
2022-11-01T05:05:35.490Z,9.93
2022-11-01T05:08:03.536Z,7.68
2022-11-01T05:10:30.966Z,11.52
2022-11-01T05:12:57.882Z,9.77
2022-11-01T05:15:25.273Z,10.40
2022-11-01T05:17:52.089Z,9.52
2022-11-01T05:20:19.512Z,11.55
2022-11-01T05:22:46.350Z,9.52
2022-11-01T05:25:13.116Z,11.23
2022-11-01T05:27:39.867Z,9.77
2022-11-01T05:30:08.047Z,9.57
2022-11-01T05:32:35.996Z,11.38
2022-11-01T05:35:02.921Z,9.18
2022-11-01T05:37:29.687Z,10.77
2022-11-01T05:39:56.503Z,9.73
2022-11-01T05:42:23.274Z,12.60
2022-11-01T05:44:50.015Z,10.82
2022-11-01T05:47:17.310Z,9.00
2022-11-01T05:49:44.484Z,8.18
2022-11-01T05:52:11.273Z,8.85
2022-11-01T05:54:38.001Z,11.50
2022-11-01T05:57:06.073Z,10.05
2022-11-01T05:59:32.879Z,10.10
2022-11-01T06:01:59.855Z,8.15
2022-11-01T06:04:26.693Z,10.23
2022-11-01T06:06:53.506Z,11.75
2022-11-01T06:09:20.281Z,9.63
2022-11-01T06:11:47.026Z,9.43
2022-11-01T06:14:13.959Z,11.07
2022-11-01T06:16:40.709Z,9.20
2022-11-01T06:19:08.782Z,9.88
2022-11-01T06:21:35.560Z,10.95
2022-11-01T06:24:03.046Z,13.25
2022-11-01T06:26:30.280Z,11.75
2022-11-01T06:28:59.936Z,8.50
2022-11-01T06:31:26.735Z,10.02
2022-11-01T06:33:53.597Z,11.65
2022-11-01T06:36:20.472Z,7.97
2022-11-01T06:38:47.229Z,8.02
2022-11-01T06:41:14.609Z,8.05
2022-11-01T06:43:42.161Z,8.82
2022-11-01T06:46:09.046Z,7.40
2022-11-01T06:48:35.767Z,10.40
2022-11-01T06:51:04.287Z,9.00
2022-11-01T06:53:31.523Z,8.38
2022-11-01T06:56:01.598Z,7.90
2022-11-01T06:58:28.703Z,8.90
2022-11-01T07:00:55.600Z,8.00
2022-11-01T07:03:22.442Z,9.60
2022-11-01T07:05:50.220Z,7.30
2022-11-01T07:08:17.063Z,6.50
2022-11-01T07:10:44.351Z,10.15
2022-11-01T07:13:13.351Z,8.35
2022-11-01T07:15:40.460Z,9.30
2022-11-01T07:18:08.570Z,13.43
2022-11-01T07:20:41.573Z,8.30
2022-11-01T07:23:17.073Z,10.70
2022-11-01T07:25:44.066Z,11.00
2022-11-01T07:28:11.827Z,9.90
2022-11-01T07:30:39.294Z,10.63
2022-11-01T07:33:06.473Z,10.52
2022-11-01T07:35:34.717Z,11.82
2022-11-01T07:38:04.024Z,10.35
2022-11-01T07:40:35.463Z,11.93
2022-11-01T07:43:02.740Z,10.65
2022-11-01T07:45:31.288Z,11.02
2022-11-01T07:48:02.874Z,11.93
2022-11-01T07:50:31.489Z,11.57
2022-11-01T07:53:02.875Z,10.82
2022-11-01T07:55:29.813Z,10.10
2022-11-01T07:57:56.673Z,12.20
2022-11-01T08:00:24.116Z,9.63
2022-11-01T08:02:51.511Z,11.63
2022-11-01T08:05:18.636Z,8.98
2022-11-01T08:07:46.593Z,10.02
2022-11-01T08:10:13.509Z,14.75
2022-11-01T08:12:40.294Z,11.00
2022-11-01T08:15:07.706Z,10.20
2022-11-01T08:17:34.728Z,12.07
2022-11-01T08:20:01.881Z,14.50
2022-11-01T08:22:28.710Z,11.95
2022-11-01T08:24:55.613Z,12.45
2022-11-01T08:27:22.354Z,9.98
2022-11-01T08:29:49.153Z,11.07
2022-11-01T08:32:20.961Z,11.50
2022-11-01T08:34:48.289Z,11.15
2022-11-01T08:37:15.186Z,14.93
2022-11-01T08:39:41.994Z,10.45
2022-11-01T08:42:09.844Z,12.90
2022-11-01T08:44:36.551Z,13.23
2022-11-01T08:47:03.296Z,15.68
2022-11-01T08:49:30.149Z,14.68
2022-11-01T08:51:56.945Z,13.85
2022-11-01T08:54:23.789Z,13.88
2022-11-01T08:56:50.540Z,12.73
2022-11-01T08:59:17.456Z,13.25
2022-11-01T09:01:44.401Z,14.32
2022-11-01T09:04:12.375Z,12.45
2022-11-01T09:06:39.171Z,15.23
2022-11-01T09:09:05.954Z,14.18
2022-11-01T09:11:32.777Z,13.57
2022-11-01T09:13:59.771Z,13.00
2022-11-01T09:16:26.744Z,13.23
2022-11-01T09:18:53.616Z,13.95
2022-11-01T09:21:20.369Z,16.30
2022-11-01T09:23:47.325Z,13.05
2022-11-01T09:26:14.231Z,13.32
2022-11-01T09:28:41.166Z,14.18
2022-11-01T09:31:20.769Z,16.30
2022-11-01T09:33:48.310Z,14.85
2022-11-01T09:36:15.061Z,14.55
2022-11-01T09:38:41.900Z,13.60
2022-11-01T09:41:35.642Z,12.63
2022-11-01T09:44:05.945Z,14.02
2022-11-01T09:46:42.494Z,15.98
2022-11-01T09:49:11.470Z,13.40
2022-11-01T09:51:39.028Z,14.93
2022-11-01T09:54:08.411Z,13.77
2022-11-01T09:57:05.577Z,14.27
2022-11-01T10:00:01.122Z,12.82
2022-11-01T10:02:46.184Z,14.43
2022-11-01T10:05:30.817Z,14.50
2022-11-01T10:08:00.586Z,14.00
2022-11-01T10:10:58.391Z,12.07
2022-11-01T10:13:37.149Z,14.57
2022-11-01T10:16:09.798Z,13.02
2022-11-01T10:19:11.192Z,14.48
2022-11-01T10:21:49.770Z,17.10
2022-11-01T10:24:37.927Z,15.00
2022-11-01T10:27:36.163Z,11.90
2022-11-01T10:30:13.493Z,10.25
2022-11-01T10:32:40.315Z,12.13
2022-11-01T10:35:17.508Z,9.07
2022-11-01T10:38:19.386Z,11.65
2022-11-01T10:41:11.242Z,9.07
2022-11-01T10:43:44.133Z,11.25
2022-11-01T10:46:18.091Z,11.60
2022-11-01T10:51:22.880Z,10.45
2022-11-01T10:53:55.894Z,12.68
2022-11-01T10:56:37.276Z,11.77
2022-11-01T10:59:10.431Z,12.52
2022-11-01T11:01:42.779Z,12.70
2022-11-01T11:04:15.058Z,13.65
2022-11-01T11:06:42.672Z,10.85
2022-11-01T11:09:21.224Z,11.52
2022-11-01T11:11:49.402Z,11.20
2022-11-01T11:14:17.982Z,9.93
2022-11-01T11:16:55.759Z,13.95
2022-11-01T11:19:30.676Z,9.50
2022-11-01T11:21:58.825Z,8.30
2022-11-01T11:24:45.941Z,14.55
2022-11-01T11:27:23.713Z,10.93
2022-11-01T11:29:53.918Z,10.20
2022-11-01T11:32:31.952Z,12.60
2022-11-01T11:35:00.095Z,13.98
2022-11-01T11:37:31.908Z,11.80
2022-11-01T11:40:21.642Z,13.32
2022-11-01T11:42:50.641Z,10.48
2022-11-01T11:45:29.897Z,9.63
2022-11-01T11:48:14.124Z,13.40
2022-11-01T11:53:35.329Z,10.88
2022-11-01T11:56:08.262Z,12.32
2022-11-01T11:58:48.413Z,11.82
2022-11-01T12:01:21.818Z,11.15
2022-11-01T12:04:00.044Z,8.13
2022-11-01T12:06:28.829Z,9.45
2022-11-01T12:08:57.981Z,11.48
2022-11-01T12:11:26.329Z,14.25
2022-11-01T12:14:07.450Z,13.25
2022-11-01T12:16:41.253Z,14.30
2022-11-01T12:19:31.711Z,10.93
2022-11-01T12:22:01.348Z,12.75
2022-11-01T12:24:42.228Z,16.23
2022-11-01T12:27:19.985Z,13.82
2022-11-01T12:29:59.717Z,15.00
2022-11-01T12:32:28.902Z,15.25
2022-11-01T12:35:00.784Z,12.98
2022-11-01T12:37:52.627Z,13.35
2022-11-01T12:40:33.435Z,12.93
2022-11-01T12:43:20.068Z,11.55
2022-11-01T12:45:59.265Z,13.35
2022-11-01T12:48:31.750Z,9.25
2022-11-01T12:51:21.525Z,13.65
2022-11-01T12:54:01.260Z,12.95
2022-11-01T12:56:28.060Z,9.20
2022-11-01T12:58:56.697Z,9.60
2022-11-01T13:01:40.775Z,12.75
2022-11-01T13:04:20.831Z,10.18
2022-11-01T13:07:07.643Z,9.07
2022-11-01T13:09:46.361Z,7.63
2022-11-01T13:12:17.121Z,13.68
2022-11-01T13:15:07.343Z,11.35
2022-11-01T13:18:01.025Z,9.60
2022-11-01T13:20:54.658Z,10.57
2022-11-01T13:23:49.385Z,8.93
2022-11-01T13:26:27.830Z,13.88
2022-11-01T13:29:07.823Z,13.63
2022-11-01T13:31:37.353Z,10.25
2022-11-01T13:34:30.993Z,11.43
2022-11-01T13:37:06.832Z,9.37
2022-11-01T13:39:52.130Z,10.35
2022-11-01T13:42:23.340Z,14.73
2022-11-01T13:45:13.416Z,13.25
2022-11-01T13:48:00.752Z,10.48
2022-11-01T13:50:42.600Z,15.23
2022-11-01T13:53:21.030Z,11.43
2022-11-01T13:56:13.921Z,13.60
2022-11-01T13:58:41.012Z,12.30
2022-11-01T14:01:37.399Z,12.63
2022-11-01T14:04:37.009Z,13.10
2022-11-01T14:07:15.718Z,14.95
2022-11-01T14:09:44.965Z,14.48
2022-11-01T14:12:34.085Z,13.02
2022-11-01T14:15:15.497Z,15.70
2022-11-01T14:17:57.667Z,13.68
2022-11-01T14:20:36.638Z,14.48
2022-11-01T14:23:27.988Z,14.57
2022-11-01T14:26:25.548Z,15.63
2022-11-01T14:28:55.379Z,16.80
2022-11-01T14:31:26.560Z,13.02
2022-11-01T14:33:58.913Z,12.77
2022-11-01T14:36:30.312Z,15.85
2022-11-01T14:39:21.612Z,14.88
2022-11-01T14:41:55.186Z,12.25
2022-11-01T14:44:39.885Z,13.55
2022-11-01T14:47:25.886Z,14.27
2022-11-01T14:49:57.020Z,13.90
2022-11-01T14:52:42.311Z,15.00
2022-11-01T14:55:20.696Z,14.65
2022-11-01T14:57:49.148Z,16.30
2022-11-01T15:00:33.934Z,12.65
2022-11-01T15:03:02.548Z,13.13
2022-11-01T15:05:29.603Z,13.13
2022-11-01T15:07:59.413Z,13.93
2022-11-01T15:10:27.727Z,13.65
2022-11-01T15:13:04.256Z,13.85
2022-11-01T15:15:37.549Z,12.73
2022-11-01T15:18:05.979Z,15.38
2022-11-01T15:20:38.783Z,14.43
2022-11-01T15:23:10.765Z,14.65
2022-11-01T15:25:40.743Z,14.32
2022-11-01T15:28:07.597Z,14.25
2022-11-01T15:30:34.956Z,11.13
2022-11-01T15:33:15.458Z,12.95
2022-11-01T15:35:42.784Z,17.85
2022-11-01T15:38:20.884Z,16.45
2022-11-01T15:40:50.499Z,15.07
2022-11-01T15:43:26.837Z,17.55
2022-11-01T15:45:58.983Z,18.83
2022-11-01T15:48:30.479Z,17.92
2022-11-01T15:51:01.296Z,14.85
2022-11-01T15:53:32.522Z,16.00
2022-11-01T15:56:08.580Z,13.75
2022-11-01T15:58:43.958Z,15.07
2022-11-01T16:01:16.098Z,17.63
2022-11-01T16:03:58.467Z,19.83
2022-11-01T16:06:36.392Z,19.05
2022-11-01T16:09:15.228Z,15.43
2022-11-01T16:11:42.190Z,17.23
2022-11-01T16:14:44.273Z,17.88
2022-11-01T16:17:33.199Z,19.13
2022-11-01T16:20:00.118Z,17.50
2022-11-01T16:22:42.002Z,21.02
2022-11-01T16:25:11.655Z,14.85
2022-11-01T16:28:02.787Z,19.92
2022-11-01T16:30:49.337Z,21.27
2022-11-01T16:33:27.688Z,27.13
2022-11-01T16:36:21.295Z,18.33
2022-11-01T16:38:55.031Z,24.25
2022-11-01T16:41:33.922Z,19.45
2022-11-01T16:44:14.342Z,22.40
2022-11-01T16:46:41.355Z,28.73
2022-11-01T16:49:22.745Z,29.83
2022-11-01T16:51:50.651Z,29.48
2022-11-01T16:54:17.488Z,29.38
2022-11-01T16:56:50.136Z,28.23
2022-11-01T16:59:26.628Z,24.20
2022-11-01T17:01:55.678Z,22.48
2022-11-01T17:04:22.937Z,23.63
2022-11-01T17:06:50.673Z,24.85
2022-11-01T17:09:19.638Z,24.63
2022-11-01T17:11:51.167Z,21.80
2022-11-01T17:14:19.407Z,23.80
2022-11-01T17:16:47.729Z,22.33
2022-11-01T17:19:31.341Z,27.83
2022-11-01T17:22:05.434Z,28.92
2022-11-01T17:24:33.501Z,24.00
2022-11-01T17:27:05.149Z,26.52
2022-11-01T17:29:32.887Z,27.25
2022-11-01T17:32:01.132Z,24.58
2022-11-01T17:34:28.914Z,25.33
2022-11-01T17:36:57.511Z,24.48
2022-11-01T17:39:28.114Z,23.90
2022-11-01T17:41:55.576Z,22.15
2022-11-01T17:44:23.200Z,21.95
2022-11-01T17:46:50.045Z,19.90
2022-11-01T17:49:17.016Z,20.70
2022-11-01T17:51:44.054Z,19.67
2022-11-01T17:54:10.859Z,23.63
2022-11-01T17:56:37.805Z,27.17
2022-11-01T17:59:04.701Z,23.05
2022-11-01T18:01:32.486Z,21.67
2022-11-01T18:03:59.422Z,20.55
2022-11-01T18:06:26.794Z,29.50
2022-11-01T18:08:54.119Z,29.27
2022-11-01T18:11:48.606Z,30.13
2022-11-01T18:14:24.605Z,44.50
2022-11-01T18:17:00.378Z,56.13
2022-11-01T18:19:45.853Z,22.08
2022-11-01T18:22:28.917Z,27.85
2022-11-01T18:25:12.761Z,28.88
2022-11-01T18:27:41.015Z,21.35
2022-11-01T18:30:19.143Z,35.13
2022-11-01T18:33:21.305Z,28.00
2022-11-01T18:36:08.168Z,25.60
2022-11-01T18:38:57.776Z,25.83
2022-11-01T18:41:25.304Z,27.17
2022-11-01T18:43:53.365Z,26.25
2022-11-01T18:46:27.041Z,25.48
2022-11-01T18:51:34.548Z,30.52
2022-11-01T18:54:10.944Z,26.17
2022-11-01T18:56:43.415Z,27.20
2022-11-01T18:59:23.273Z,26.67
2022-11-01T19:02:13.523Z,28.17
2022-11-01T19:04:42.825Z,26.30
2022-11-01T19:07:14.146Z,25.70
2022-11-01T19:09:56.558Z,27.88
2022-11-01T19:12:29.598Z,29.42
2022-11-01T19:14:59.735Z,24.58
2022-11-01T19:17:29.490Z,24.45
2022-11-01T19:19:57.445Z,23.65
2022-11-01T19:22:40.567Z,24.58
2022-11-01T19:25:21.675Z,25.55
2022-11-01T19:27:50.611Z,20.70
2022-11-01T19:30:28.455Z,22.25
2022-11-01T19:33:08.734Z,22.75
2022-11-01T19:35:35.480Z,24.10
2022-11-01T19:38:02.491Z,26.42
2022-11-01T19:40:34.845Z,26.67
2022-11-01T19:43:20.344Z,22.42
2022-11-01T19:45:52.040Z,23.30
2022-11-01T19:48:26.995Z,26.48
2022-11-01T19:50:55.084Z,28.35
2022-11-01T19:53:33.861Z,27.83
2022-11-01T19:56:09.789Z,28.60
2022-11-01T19:58:42.314Z,26.00
2022-11-01T20:01:23.762Z,28.50
2022-11-01T20:03:57.284Z,25.63
2022-11-01T20:06:31.043Z,27.33
2022-11-01T20:09:18.240Z,20.83
2022-11-01T20:11:45.525Z,26.95
2022-11-01T20:14:14.142Z,22.98
2022-11-01T20:16:42.192Z,27.55
2022-11-01T20:19:13.205Z,22.77
2022-11-01T20:21:44.450Z,22.38
2022-11-01T20:24:12.375Z,21.42
2022-11-01T20:26:40.465Z,22.45
2022-11-01T20:29:08.429Z,23.88
2022-11-01T20:31:37.631Z,24.73
2022-11-01T20:34:05.876Z,19.77
2022-11-01T20:36:33.668Z,22.98
2022-11-01T20:39:01.521Z,25.90
2022-11-01T20:41:30.720Z,26.58
2022-11-01T20:43:58.847Z,21.02
2022-11-01T20:46:25.771Z,25.38
2022-11-01T20:48:53.517Z,24.23
2022-11-01T20:51:21.539Z,28.58
2022-11-01T20:53:49.566Z,23.17
2022-11-01T20:56:18.902Z,25.42
2022-11-01T20:58:48.096Z,21.35
2022-11-01T21:01:20.609Z,22.63
2022-11-01T21:03:49.950Z,23.67
2022-11-01T21:06:20.264Z,23.10
2022-11-01T21:08:49.287Z,21.60
2022-11-01T21:11:43.890Z,23.88
2022-11-01T21:14:16.656Z,24.65
2022-11-01T21:16:43.823Z,25.75
2022-11-01T21:19:24.162Z,26.08
2022-11-01T21:21:59.530Z,27.35
2022-11-01T21:24:34.514Z,21.75
2022-11-01T21:27:04.560Z,22.52
2022-11-01T21:29:31.421Z,23.90
2022-11-01T21:31:58.266Z,23.02
2022-11-01T21:34:28.413Z,23.40
2022-11-01T21:36:58.075Z,22.02
2022-11-01T21:39:33.105Z,23.80
2022-11-01T21:42:22.887Z,23.00
2022-11-01T21:44:49.898Z,23.92
2022-11-01T21:47:30.634Z,24.45
2022-11-01T21:49:57.478Z,23.25
2022-11-01T21:52:24.682Z,21.50
2022-11-01T21:54:52.748Z,22.40
2022-11-01T21:57:19.744Z,25.42
2022-11-01T21:59:46.670Z,21.35
2022-11-01T22:02:14.957Z,25.20
2022-11-01T22:04:42.273Z,20.88
2022-11-01T22:07:11.207Z,23.17
2022-11-01T22:09:38.261Z,22.73
2022-11-01T22:12:06.728Z,21.77
2022-11-01T22:14:33.680Z,24.00
2022-11-01T22:17:01.052Z,22.88
2022-11-01T22:19:27.929Z,19.48
2022-11-01T22:21:54.879Z,22.02
2022-11-01T22:24:21.750Z,21.40
2022-11-01T22:26:48.520Z,20.63
2022-11-01T22:29:15.370Z,19.70
2022-11-01T22:31:42.213Z,21.25
2022-11-01T22:34:08.992Z,19.35
2022-11-01T22:36:36.849Z,21.33
2022-11-01T22:39:23.520Z,18.55
2022-11-01T22:41:50.332Z,22.58
2022-11-01T22:44:20.254Z,20.50
2022-11-01T22:46:57.899Z,18.33
2022-11-01T22:49:30.643Z,18.65
2022-11-01T22:52:05.300Z,18.90
2022-11-01T22:54:47.396Z,18.20
2022-11-01T22:57:24.246Z,21.58
2022-11-01T22:59:53.795Z,20.33
2022-11-01T23:02:31.011Z,17.88
2022-11-01T23:05:06.794Z,20.27
2022-11-01T23:07:35.713Z,13.93
2022-11-01T23:10:21.253Z,17.80
2022-11-01T23:13:08.369Z,16.08
2022-11-01T23:15:35.357Z,15.32
2022-11-01T23:18:02.206Z,16.23
2022-11-01T23:20:29.914Z,18.98
2022-11-01T23:22:56.915Z,16.20
2022-11-01T23:25:26.392Z,15.23
2022-11-01T23:27:54.548Z,16.70
2022-11-01T23:30:22.505Z,16.85
2022-11-01T23:32:49.253Z,15.05
2022-11-01T23:35:20.387Z,15.95
2022-11-01T23:37:47.686Z,16.58
2022-11-01T23:40:17.384Z,16.13
2022-11-01T23:42:44.269Z,16.58
2022-11-01T23:45:46.574Z,15.98
2022-11-01T23:48:13.477Z,14.15
2022-11-01T23:50:40.392Z,14.07
2022-11-01T23:53:13.629Z,15.30
2022-11-01T23:55:48.390Z,16.63
2022-11-01T23:58:24.410Z,19.88
